createdAt,value
2022-08-02T00:01:22.688Z,3.90
2022-08-02T00:03:50.622Z,4.00
2022-08-02T00:06:18.535Z,4.40
2022-08-02T00:08:46.547Z,4.20
2022-08-02T00:11:14.502Z,4.50
2022-08-02T00:13:42.406Z,4.30
2022-08-02T00:16:10.283Z,4.00
2022-08-02T00:18:45.075Z,4.10
2022-08-02T00:21:13.675Z,4.30
2022-08-02T00:24:04.950Z,4.20
2022-08-02T00:26:30.692Z,4.40
2022-08-02T00:28:58.548Z,4.40
2022-08-02T00:31:26.448Z,4.30
2022-08-02T00:34:28.313Z,4.40
2022-08-02T00:36:42.274Z,4.70
2022-08-02T00:39:33.587Z,4.10
2022-08-02T00:41:58.094Z,4.60
2022-08-02T00:44:25.990Z,4.80
2022-08-02T00:46:53.794Z,4.70
2022-08-02T00:49:21.618Z,4.70
2022-08-02T00:51:49.499Z,4.60
2022-08-02T00:54:17.362Z,5.10
2022-08-02T00:56:50.038Z,4.80
2022-08-02T00:59:19.246Z,4.80
2022-08-02T01:01:57.385Z,5.10
2022-08-02T01:04:31.340Z,4.20
2022-08-02T01:07:01.663Z,4.70
2022-08-02T01:09:29.612Z,4.50
2022-08-02T01:11:57.748Z,4.70
2022-08-02T01:14:30.728Z,4.80
2022-08-02T01:17:39.678Z,4.20
2022-08-02T01:20:48.064Z,4.80
2022-08-02T01:24:16.214Z,4.70
2022-08-02T01:26:53.413Z,5.00
2022-08-02T01:29:36.110Z,4.90
2022-08-02T01:34:58.816Z,4.80
2022-08-02T01:37:44.818Z,4.80
2022-08-02T01:40:20.611Z,4.70
2022-08-02T01:42:53.314Z,4.20
2022-08-02T01:45:24.312Z,4.60
2022-08-02T01:47:52.939Z,4.20
2022-08-02T01:50:29.571Z,4.80
2022-08-02T01:53:00.511Z,5.10
2022-08-02T01:55:35.063Z,4.90
2022-08-02T02:00:49.881Z,4.80
2022-08-02T02:03:24.758Z,5.20
2022-08-02T02:05:57.550Z,4.70
2022-08-02T02:08:31.773Z,4.80
2022-08-02T02:12:11.760Z,5.10
2022-08-02T02:13:50.326Z,4.50
2022-08-02T02:16:20.444Z,4.30
2022-08-02T02:18:49.262Z,5.20
2022-08-02T02:21:17.089Z,5.20
2022-08-02T02:23:45.133Z,5.00
2022-08-02T02:26:17.550Z,5.10
2022-08-02T02:28:59.727Z,5.50
2022-08-02T02:31:30.449Z,5.20
2022-08-02T02:34:13.436Z,4.60
2022-08-02T02:36:46.952Z,4.60
2022-08-02T02:39:16.109Z,5.00
2022-08-02T02:41:44.753Z,5.00
2022-08-02T02:44:17.632Z,4.90
2022-08-02T02:46:48.501Z,4.70
2022-08-02T02:49:18.271Z,5.20
2022-08-02T02:51:46.306Z,4.50
2022-08-02T02:54:30.158Z,4.90
2022-08-02T02:57:05.226Z,4.60
2022-08-02T02:59:43.096Z,4.90
2022-08-02T03:02:18.994Z,5.10
2022-08-02T03:04:56.944Z,4.50
2022-08-02T03:07:27.096Z,5.00
2022-08-02T03:09:55.429Z,4.90
2022-08-02T03:12:30.825Z,4.60
2022-08-02T03:15:02.342Z,4.60
2022-08-02T03:17:45.656Z,4.40
2022-08-02T03:20:19.416Z,4.80
2022-08-02T03:22:47.768Z,4.40
2022-08-02T03:25:17.574Z,4.80
2022-08-02T03:27:45.792Z,4.80
2022-08-02T03:30:15.301Z,4.70
2022-08-02T03:32:47.789Z,4.70
2022-08-02T03:37:54.505Z,4.90
2022-08-02T03:40:23.339Z,4.70
2022-08-02T03:42:51.701Z,4.30
2022-08-02T03:45:20.299Z,3.80
2022-08-02T03:47:48.319Z,4.10
2022-08-02T03:50:16.667Z,4.50
2022-08-02T03:52:45.720Z,4.40
2022-08-02T03:55:14.067Z,3.70
2022-08-02T03:57:42.990Z,4.50
2022-08-02T04:00:15.626Z,4.70
2022-08-02T04:02:43.610Z,4.20
2022-08-02T04:05:11.570Z,4.30
2022-08-02T04:08:32.703Z,4.30
2022-08-02T04:10:27.361Z,4.20
2022-08-02T04:12:55.942Z,4.00
2022-08-02T04:15:24.654Z,3.70
2022-08-02T04:17:59.478Z,4.20
2022-08-02T04:20:31.696Z,4.00
2022-08-02T04:23:08.298Z,4.30
2022-08-02T04:25:40.295Z,3.70
2022-08-02T04:28:16.947Z,3.70
2022-08-02T04:30:50.090Z,4.00
2022-08-02T04:33:18.400Z,3.80
2022-08-02T04:35:46.261Z,3.80
2022-08-02T04:38:15.812Z,4.40
2022-08-02T04:40:55.550Z,3.70
2022-08-02T04:43:24.214Z,3.70
2022-08-02T04:45:54.774Z,3.50
2022-08-02T04:48:23.631Z,4.20
2022-08-02T04:50:52.209Z,3.80
2022-08-02T04:53:20.120Z,3.50
2022-08-02T04:55:47.953Z,3.20
2022-08-02T04:58:39.393Z,3.40
2022-08-02T05:01:04.181Z,3.10
2022-08-02T05:03:32.163Z,3.20
2022-08-02T05:06:03.741Z,2.70
2022-08-02T05:08:41.091Z,2.90
2022-08-02T05:11:09.125Z,2.80
2022-08-02T05:13:58.522Z,2.60
2022-08-02T05:16:30.695Z,2.80
2022-08-02T05:19:02.010Z,2.90
2022-08-02T05:21:32.026Z,3.00
2022-08-02T05:24:00.145Z,2.90
2022-08-02T05:26:27.949Z,2.60
2022-08-02T05:28:55.814Z,3.20
2022-08-02T05:31:23.966Z,2.80
2022-08-02T05:33:51.823Z,3.50
2022-08-02T05:36:21.698Z,2.70
2022-08-02T05:38:51.230Z,3.00
2022-08-02T05:41:20.608Z,3.00
2022-08-02T05:43:48.510Z,2.50
2022-08-02T05:46:16.561Z,2.80
2022-08-02T05:48:45.759Z,2.50
2022-08-02T05:51:38.217Z,3.10
2022-08-02T05:54:16.715Z,2.60
2022-08-02T05:56:55.809Z,2.60
2022-08-02T05:59:41.118Z,2.60
2022-08-02T06:02:39.531Z,2.20
2022-08-02T06:05:15.991Z,2.30
2022-08-02T06:07:45.585Z,2.20
2022-08-02T06:10:16.890Z,2.30
2022-08-02T06:13:16.528Z,2.30
2022-08-02T06:15:53.436Z,2.00
2022-08-02T06:18:28.524Z,2.20
2022-08-02T06:22:33.202Z,2.40
2022-08-02T06:23:57.743Z,1.80
2022-08-02T06:26:28.593Z,1.90
2022-08-02T06:28:59.483Z,1.50
2022-08-02T06:31:27.626Z,1.70
2022-08-02T06:33:56.335Z,1.70
2022-08-02T06:36:42.950Z,2.30
2022-08-02T06:39:20.451Z,1.60
2022-08-02T06:41:50.318Z,1.80
2022-08-02T06:47:12.362Z,1.90
2022-08-02T06:49:52.541Z,1.70
2022-08-02T06:52:28.709Z,1.60
2022-08-02T06:55:03.964Z,1.50
2022-08-02T06:57:32.990Z,1.80
2022-08-02T07:00:02.686Z,1.40
2022-08-02T07:02:31.892Z,1.70
2022-08-02T07:05:01.437Z,1.90
2022-08-02T07:07:29.531Z,1.40
2022-08-02T07:10:01.221Z,1.60
2022-08-02T07:12:32.218Z,1.40
2022-08-02T07:15:07.370Z,1.50
2022-08-02T07:17:36.111Z,1.60
2022-08-02T07:20:04.755Z,1.70
2022-08-02T07:22:32.839Z,1.70
2022-08-02T07:25:01.928Z,1.50
2022-08-02T07:27:30.259Z,1.50
2022-08-02T07:29:59.031Z,1.60
2022-08-02T07:32:30.298Z,1.40
2022-08-02T07:35:00.061Z,1.30
2022-08-02T07:37:53.239Z,1.30
2022-08-02T07:40:22.399Z,1.30
2022-08-02T07:42:57.888Z,1.30
2022-08-02T07:45:28.288Z,1.30
2022-08-02T07:47:57.063Z,1.30
2022-08-02T07:50:24.998Z,1.40
2022-08-02T07:52:57.217Z,1.00
2022-08-02T07:55:33.382Z,1.30
2022-08-02T08:00:43.941Z,1.50
2022-08-02T08:03:12.295Z,1.30
2022-08-02T08:05:40.881Z,1.50
2022-08-02T08:08:16.953Z,2.60
2022-08-02T08:22:55.058Z,1.50
2022-08-02T08:25:22.991Z,1.30
2022-08-02T08:27:55.082Z,0.80
2022-08-02T08:30:23.207Z,1.20
2022-08-02T08:32:51.126Z,1.70
2022-08-02T08:35:19.289Z,1.40
2022-08-02T08:37:49.629Z,1.20
2022-08-02T08:40:19.751Z,1.40
2022-08-02T08:42:48.098Z,1.20
2022-08-02T08:45:18.124Z,1.10
2022-08-02T08:47:53.385Z,1.20
2022-08-02T08:50:26.121Z,1.50
2022-08-02T08:53:02.913Z,1.50
2022-08-02T08:55:32.108Z,1.50
2022-08-02T08:58:01.480Z,1.20
2022-08-02T09:00:35.926Z,1.30
2022-08-02T09:03:08.677Z,1.20
2022-08-02T09:05:40.093Z,1.70
2022-08-02T09:08:11.277Z,1.20
2022-08-02T09:10:45.073Z,1.30
2022-08-02T09:13:44.942Z,1.60
2022-08-02T09:16:14.827Z,1.40
2022-08-02T09:18:46.917Z,1.40
2022-08-02T09:21:22.139Z,1.40
2022-08-02T09:23:57.600Z,1.40
2022-08-02T09:26:26.948Z,1.00
2022-08-02T09:29:02.147Z,1.30
2022-08-02T09:31:30.002Z,1.90
2022-08-02T09:33:59.867Z,1.50
2022-08-02T09:36:44.543Z,1.40
2022-08-02T09:39:15.824Z,1.50
2022-08-02T09:41:45.605Z,1.20
2022-08-02T09:44:16.263Z,1.40
2022-08-02T09:46:47.638Z,1.50
2022-08-02T09:49:18.549Z,1.70
2022-08-02T09:51:49.249Z,1.50
2022-08-02T09:54:36.537Z,1.40
2022-08-02T09:57:04.576Z,1.30
2022-08-02T09:59:32.815Z,1.20
2022-08-02T10:02:17.129Z,1.20
2022-08-02T10:04:53.303Z,1.50
2022-08-02T10:07:23.369Z,1.40
2022-08-02T10:09:52.411Z,1.20
2022-08-02T10:12:23.155Z,1.50
2022-08-02T10:14:52.177Z,1.30
2022-08-02T10:17:21.291Z,1.30
2022-08-02T10:20:01.978Z,1.30
2022-08-02T10:22:35.009Z,1.40
2022-08-02T10:25:05.314Z,1.30
2022-08-02T10:28:02.398Z,1.60
2022-08-02T10:30:24.732Z,1.20
2022-08-02T10:32:54.316Z,1.80
2022-08-02T10:35:25.621Z,1.00
2022-08-02T10:38:03.932Z,1.50
2022-08-02T10:40:44.474Z,1.20
2022-08-02T10:43:14.278Z,1.30
2022-08-02T10:45:42.234Z,1.40
2022-08-02T10:48:15.274Z,1.30
2022-08-02T10:50:49.416Z,1.20
2022-08-02T10:53:29.499Z,1.30
2022-08-02T10:56:03.815Z,1.40
2022-08-02T10:58:35.047Z,1.30
2022-08-02T11:01:26.845Z,1.70
2022-08-02T11:04:10.588Z,1.40
2022-08-02T11:07:17.682Z,1.90
2022-08-02T11:09:48.338Z,1.30
2022-08-02T11:12:21.539Z,1.30
2022-08-02T11:15:07.766Z,1.30
2022-08-02T11:17:56.869Z,1.20
2022-08-02T11:20:27.395Z,1.40
2022-08-02T11:23:44.046Z,1.40
2022-08-02T11:26:32.105Z,1.30
2022-08-02T11:29:03.564Z,1.50
2022-08-02T11:31:40.862Z,1.60
2022-08-02T11:34:10.122Z,1.40
2022-08-02T11:36:50.700Z,1.20
2022-08-02T11:39:21.727Z,1.40
2022-08-02T11:41:58.891Z,1.50
2022-08-02T11:44:28.989Z,1.60
2022-08-02T11:47:03.357Z,1.70
2022-08-02T11:49:31.594Z,1.60
2022-08-02T11:52:06.437Z,2.00
2022-08-02T11:54:40.617Z,1.90
2022-08-02T11:57:21.453Z,2.50
2022-08-02T11:59:53.469Z,1.80
2022-08-02T12:02:31.679Z,1.50
2022-08-02T12:05:03.146Z,1.30
2022-08-02T12:07:46.093Z,1.30
2022-08-02T12:10:24.494Z,1.40
2022-08-02T12:12:58.351Z,1.50
2022-08-02T12:15:45.400Z,1.90
2022-08-02T12:18:38.048Z,1.40
2022-08-02T12:21:23.661Z,1.50
2022-08-02T12:23:59.347Z,1.50
2022-08-02T12:26:30.787Z,1.20
2022-08-02T12:28:59.896Z,1.80
2022-08-02T12:31:56.017Z,1.50
2022-08-02T12:34:31.493Z,1.50
2022-08-02T12:37:08.077Z,1.30
2022-08-02T12:39:46.431Z,1.60
2022-08-02T12:42:16.287Z,1.40
2022-08-02T12:44:59.282Z,1.60
2022-08-02T12:47:35.642Z,1.90
2022-08-02T12:50:37.278Z,1.30
2022-08-02T12:53:08.148Z,1.10
2022-08-02T12:56:02.085Z,1.50
2022-08-02T12:58:31.205Z,1.30
2022-08-02T13:01:01.474Z,1.60
2022-08-02T13:04:07.702Z,1.30
2022-08-02T13:09:17.241Z,1.30
2022-08-02T13:11:45.718Z,1.50
2022-08-02T13:14:14.323Z,1.20
2022-08-02T13:16:46.091Z,1.60
2022-08-02T13:19:15.779Z,1.10
2022-08-02T13:22:01.906Z,1.70
2022-08-02T13:24:40.780Z,1.50
2022-08-02T13:27:21.611Z,1.50
2022-08-02T13:29:51.673Z,1.40
2022-08-02T13:32:20.786Z,1.30
2022-08-02T13:34:49.079Z,1.40
2022-08-02T13:37:18.633Z,1.70
2022-08-02T13:40:05.499Z,1.80
2022-08-02T13:42:34.534Z,1.30
2022-08-02T13:45:12.969Z,1.30
2022-08-02T13:48:04.527Z,1.30
2022-08-02T13:50:33.175Z,1.10
2022-08-02T13:53:01.199Z,1.70
2022-08-02T13:55:29.248Z,1.30
2022-08-02T13:57:57.820Z,1.30
2022-08-02T14:00:35.555Z,1.20
2022-08-02T14:03:07.110Z,1.60
2022-08-02T14:05:48.166Z,1.20
2022-08-02T14:08:18.660Z,1.30
2022-08-02T14:10:47.894Z,1.50
2022-08-02T14:13:16.869Z,1.60
2022-08-02T14:15:47.751Z,1.50
2022-08-02T14:18:15.741Z,1.30
2022-08-02T14:20:45.278Z,1.30
2022-08-02T14:23:13.314Z,1.60
2022-08-02T14:25:41.369Z,1.90
2022-08-02T14:28:09.464Z,1.50
2022-08-02T14:30:37.549Z,1.70
2022-08-02T14:33:05.539Z,1.60
2022-08-02T14:35:33.585Z,1.50
2022-08-02T14:38:01.493Z,1.70
2022-08-02T14:40:31.766Z,1.40
2022-08-02T14:43:02.934Z,1.80
2022-08-02T14:45:39.764Z,1.40
2022-08-02T14:48:11.405Z,1.60
2022-08-02T14:50:39.267Z,1.60
2022-08-02T14:53:12.454Z,1.60
2022-08-02T14:55:45.190Z,1.60
2022-08-02T14:58:12.970Z,2.00
2022-08-02T15:00:41.763Z,1.80
2022-08-02T15:03:11.977Z,1.50
2022-08-02T15:05:40.491Z,1.70
2022-08-02T15:08:08.371Z,2.00
2022-08-02T15:10:36.327Z,1.80
2022-08-02T15:13:04.508Z,1.60
2022-08-02T15:15:32.457Z,1.70
2022-08-02T15:18:14.220Z,2.00
2022-08-02T15:20:47.786Z,1.90
2022-08-02T15:23:37.637Z,2.00
2022-08-02T15:26:06.997Z,1.80
2022-08-02T15:28:35.092Z,1.60
2022-08-02T15:31:02.995Z,2.00
2022-08-02T15:33:33.207Z,1.90
2022-08-02T15:36:00.973Z,1.80
2022-08-02T15:38:28.863Z,1.70
2022-08-02T15:40:56.799Z,1.40
2022-08-02T15:43:24.819Z,1.80
2022-08-02T15:45:52.744Z,1.70
2022-08-02T15:48:20.601Z,1.90
2022-08-02T15:50:48.500Z,1.60
2022-08-02T15:53:16.381Z,1.60
2022-08-02T15:55:53.191Z,1.70
2022-08-02T15:58:31.941Z,1.50
2022-08-02T16:01:00.082Z,1.50
2022-08-02T16:03:28.378Z,1.80
2022-08-02T16:05:56.283Z,1.30
2022-08-02T16:08:24.108Z,1.40
2022-08-02T16:10:51.925Z,1.60
2022-08-02T16:13:49.935Z,2.00
2022-08-02T16:16:34.058Z,1.70
2022-08-02T16:19:46.317Z,1.80
2022-08-02T16:21:53.797Z,1.50
2022-08-02T16:24:22.263Z,1.70
2022-08-02T16:26:53.061Z,1.70
2022-08-02T16:29:20.902Z,1.70
2022-08-02T16:31:48.772Z,2.10
2022-08-02T16:34:21.061Z,1.90
2022-08-02T16:36:50.282Z,1.70
2022-08-02T16:39:18.133Z,1.90
2022-08-02T16:41:51.455Z,1.60
2022-08-02T16:44:29.538Z,1.70
2022-08-02T16:47:00.831Z,1.90
2022-08-02T16:50:07.223Z,1.80
2022-08-02T16:52:19.507Z,1.80
2022-08-02T16:54:49.952Z,1.70
2022-08-02T16:57:19.541Z,1.80
2022-08-02T16:59:58.219Z,2.10
2022-08-02T17:02:27.857Z,1.80
2022-08-02T17:04:56.785Z,2.20
2022-08-02T17:08:07.083Z,2.10
2022-08-02T17:10:12.779Z,2.20
2022-08-02T17:12:40.920Z,2.10
2022-08-02T17:16:01.403Z,2.10
2022-08-02T17:17:58.592Z,1.70
2022-08-02T17:20:26.374Z,1.70
2022-08-02T17:22:54.404Z,1.60
2022-08-02T17:25:24.793Z,1.90
2022-08-02T17:27:55.646Z,1.90
2022-08-02T17:30:31.491Z,1.70
2022-08-02T17:32:59.506Z,1.80
2022-08-02T17:35:43.173Z,1.50
2022-08-02T17:38:26.654Z,1.60
2022-08-02T17:40:56.383Z,1.80
2022-08-02T17:43:29.177Z,1.80
2022-08-02T17:46:02.552Z,2.00
2022-08-02T17:52:47.672Z,1.90
2022-08-02T17:54:45.529Z,2.20
2022-08-02T17:57:14.612Z,3.10
2022-08-02T18:00:03.915Z,3.00
2022-08-02T18:02:36.749Z,2.70
2022-08-02T18:05:06.255Z,2.70
2022-08-02T18:07:50.215Z,2.70
2022-08-02T18:10:29.158Z,2.40
2022-08-02T18:13:03.784Z,2.80
2022-08-02T18:15:35.080Z,2.70
2022-08-02T18:20:40.922Z,4.20
2022-08-02T18:23:13.504Z,5.30
2022-08-02T18:25:46.069Z,5.70
2022-08-02T18:28:19.632Z,5.40
2022-08-02T18:30:55.407Z,4.90
2022-08-02T18:33:56.985Z,4.50
2022-08-02T18:36:24.457Z,5.00
2022-08-02T18:38:53.757Z,5.20
2022-08-02T18:41:22.344Z,4.10
2022-08-02T18:43:52.689Z,3.50
2022-08-02T18:46:20.485Z,4.40
2022-08-02T18:48:48.375Z,4.10
2022-08-02T18:51:19.433Z,4.90
2022-08-02T18:53:52.421Z,5.30
2022-08-02T18:56:24.790Z,4.90
2022-08-02T18:58:55.252Z,4.80
2022-08-02T19:01:31.930Z,6.50
2022-08-02T19:04:08.608Z,6.10
2022-08-02T19:06:37.195Z,6.50
2022-08-02T19:09:13.209Z,6.40
2022-08-02T19:11:47.240Z,6.70
2022-08-02T19:14:24.178Z,7.10
2022-08-02T19:17:53.586Z,7.40
2022-08-02T19:19:48.523Z,7.90
2022-08-02T19:22:20.398Z,8.10
2022-08-02T19:24:51.986Z,6.20
2022-08-02T19:27:25.908Z,6.40
2022-08-02T19:30:07.514Z,5.60
2022-08-02T19:32:39.846Z,5.70
2022-08-02T19:35:19.405Z,6.00
2022-08-02T19:38:09.370Z,6.10
2022-08-02T19:40:42.346Z,6.10
2022-08-02T19:44:26.076Z,6.30
2022-08-02T19:46:00.525Z,5.80
2022-08-02T19:48:29.189Z,6.00
2022-08-02T19:51:00.662Z,5.90
2022-08-02T19:56:25.480Z,7.40
2022-08-02T19:58:59.732Z,6.80
2022-08-02T20:01:39.458Z,6.60
2022-08-02T20:04:12.887Z,8.00
2022-08-02T20:06:47.596Z,10.30
2022-08-02T20:09:21.554Z,10.10
2022-08-02T20:11:54.353Z,8.60
2022-08-02T20:14:27.017Z,15.30
2022-08-02T20:17:00.077Z,15.20
2022-08-02T20:22:00.542Z,12.10
2022-08-02T20:26:59.749Z,11.50
2022-08-02T20:29:42.912Z,10.30
2022-08-02T20:32:14.977Z,11.80
2022-08-02T20:34:43.082Z,12.00
2022-08-02T20:38:00.381Z,10.60
2022-08-02T20:40:09.411Z,9.50
2022-08-02T20:42:37.626Z,11.70
2022-08-02T20:45:13.053Z,14.30
2022-08-02T20:47:52.396Z,17.60
2022-08-02T20:50:41.456Z,19.70
2022-08-02T20:53:23.909Z,15.70
2022-08-02T20:55:55.419Z,17.90
2022-08-02T20:58:28.012Z,14.50
2022-08-02T21:00:59.882Z,13.10
2022-08-02T21:03:38.823Z,13.90
2022-08-02T21:06:15.155Z,13.90
2022-08-02T21:08:46.086Z,14.20
2022-08-02T21:11:14.492Z,14.10
2022-08-02T21:13:46.424Z,12.00
2022-08-02T21:16:18.433Z,11.60
2022-08-02T21:18:51.505Z,11.50
2022-08-02T21:21:19.484Z,11.90
2022-08-02T21:23:54.405Z,14.10
2022-08-02T21:26:27.822Z,13.30
2022-08-02T21:29:00.794Z,16.60
2022-08-02T21:31:36.161Z,23.10
2022-08-02T21:34:21.740Z,21.80
2022-08-02T21:36:50.708Z,17.80
2022-08-02T21:39:21.107Z,17.70
2022-08-02T21:41:49.677Z,13.60
2022-08-02T21:44:20.107Z,13.40
2022-08-02T21:46:53.816Z,11.00
2022-08-02T21:49:40.534Z,10.40
2022-08-02T21:52:09.179Z,7.10
2022-08-02T21:54:40.387Z,10.00
2022-08-02T21:57:15.608Z,20.90
2022-08-02T21:59:46.397Z,14.90
2022-08-02T22:02:16.726Z,28.80
2022-08-02T22:04:47.882Z,30.00
2022-08-02T22:07:23.652Z,22.30
2022-08-02T22:09:53.375Z,17.40
2022-08-02T22:12:25.828Z,19.80
2022-08-02T22:14:55.662Z,8.70
2022-08-02T22:17:50.569Z,8.40
2022-08-02T22:20:20.245Z,7.60
2022-08-02T22:22:51.179Z,6.60
2022-08-02T22:25:27.122Z,6.20
2022-08-02T22:28:37.983Z,6.10
2022-08-02T22:30:57.458Z,6.40
2022-08-02T22:33:47.181Z,5.80
2022-08-02T22:36:30.104Z,5.30
2022-08-02T22:38:58.657Z,5.80
2022-08-02T22:47:11.699Z,6.20
2022-08-02T22:49:53.061Z,6.40
2022-08-02T22:52:23.976Z,5.60
2022-08-02T22:54:52.010Z,5.60
2022-08-02T22:57:30.879Z,6.20
2022-08-02T22:59:06.148Z,5.90
2022-08-02T22:59:09.693Z,6.10
2022-08-02T22:59:09.786Z,6.00
2022-08-02T23:00:00.524Z,6.30
2022-08-02T23:02:28.418Z,6.20
2022-08-02T23:04:58.352Z,6.10
2022-08-02T23:07:26.752Z,6.00
2022-08-02T23:09:55.829Z,5.60
2022-08-02T23:12:24.288Z,5.60
2022-08-02T23:14:52.952Z,6.40
2022-08-02T23:17:39.292Z,5.70
2022-08-02T23:20:15.725Z,6.20
2022-08-02T23:22:43.668Z,5.30
2022-08-02T23:25:12.823Z,5.60
2022-08-02T23:27:49.875Z,5.70
2022-08-02T23:30:19.957Z,5.70
2022-08-02T23:32:48.214Z,5.90
2022-08-02T23:35:17.020Z,5.50
2022-08-02T23:38:00.173Z,5.20
2022-08-02T23:40:40.632Z,5.10
2022-08-02T23:43:14.395Z,5.40
2022-08-02T23:45:45.660Z,4.70
2022-08-02T23:48:14.155Z,5.50
2022-08-02T23:50:42.435Z,4.70
2022-08-02T23:53:10.300Z,5.20
2022-08-02T23:55:38.191Z,4.90
2022-08-02T23:58:05.991Z,4.40
